Bergheim, Austria
Current Conditions -  °F | °C
As of 4:50 AM on Thursday 27 Nov 2014 (Local Time) from LOWS Reporting Station
Broken Clouds Broken Clouds  
Wind Chill: 37°   Ceiling: 700
Heat Index: 37°   Visibility: 6mi
Dew Point: 36°   Wind: 3mph
Humidity: 93%   Direction: 300°WNW
Pressure: 29.88"   Gusts: NA
Location:  47.84°N, 13.02°E
Report Text: LOWS 270250Z 30003KT 9000 BKN007 03/02 Q1012
Loading
Personal Weather Stations






























Interactive Weather Map New forecast layout! Learn more

10-Day Weather Forecast

Advertisements
Track Severe Weather on mobile